createdAt,value
2019-01-03T00:01:46.048Z,0.20
2019-01-03T00:04:51.420Z,0.10
2019-01-03T00:07:50.979Z,0.10
2019-01-03T00:10:41.676Z,0.00
2019-01-03T00:13:41.596Z,0.10
2019-01-03T00:16:36.483Z,0.00
2019-01-03T00:19:36.345Z,0.00
2019-01-03T00:22:35.762Z,-0.10
2019-01-03T00:25:35.222Z,0.00
2019-01-03T00:28:26.923Z,0.00
2019-01-03T00:31:30.436Z,-0.10
2019-01-03T00:34:29.960Z,0.00
2019-01-03T00:37:29.376Z,-0.10
2019-01-03T00:40:28.937Z,0.00
2019-01-03T00:43:28.454Z,0.00
2019-01-03T00:46:09.212Z,-0.10
2019-01-03T00:51:51.490Z,0.00
2019-01-03T00:54:50.644Z,0.00
2019-01-03T00:57:50.751Z,0.00
2019-01-03T01:00:50.839Z,0.00
2019-01-03T01:03:53.960Z,0.00
2019-01-03T01:06:47.976Z,0.00
2019-01-03T01:09:47.920Z,-0.10
2019-01-03T01:12:47.532Z,-0.20
2019-01-03T01:15:47.708Z,-0.10
2019-01-03T01:18:47.195Z,-0.20
2019-01-03T01:21:46.996Z,-0.20
2019-01-03T01:24:49.327Z,-0.20
2019-01-03T01:27:44.620Z,-0.20
2019-01-03T01:30:44.108Z,-0.30
2019-01-03T01:33:46.623Z,-0.20
2019-01-03T01:36:46.109Z,-0.30
2019-01-03T01:39:36.095Z,-0.30
2019-01-03T01:42:36.146Z,-0.30
2019-01-03T01:45:36.310Z,-0.30
2019-01-03T01:48:36.461Z,-0.40
2019-01-03T01:51:35.828Z,-0.30
2019-01-03T01:54:35.297Z,-0.30
2019-01-03T01:57:35.411Z,-0.30
2019-01-03T02:00:32.547Z,-0.30
2019-01-03T02:03:32.019Z,-0.40
2019-01-03T02:06:37.486Z,-0.40
2019-01-03T02:09:37.245Z,-0.40
2019-01-03T02:12:41.039Z,-0.40
2019-01-03T02:18:24.208Z,-0.40
2019-01-03T02:21:23.728Z,-0.40
2019-01-03T02:24:04.520Z,-0.40
2019-01-03T02:26:58.525Z,-0.40
2019-01-03T02:29:58.363Z,-0.40
2019-01-03T02:32:52.643Z,-0.40
2019-01-03T02:35:55.292Z,-0.40
2019-01-03T02:38:55.330Z,-0.30
2019-01-03T02:41:54.926Z,-0.30
2019-01-03T02:44:48.924Z,-0.30
2019-01-03T02:47:51.322Z,-0.30
2019-01-03T02:50:51.032Z,-0.20
2019-01-03T02:53:50.561Z,-0.20
2019-01-03T02:56:50.115Z,-0.10
2019-01-03T02:59:50.019Z,-0.10
2019-01-03T03:02:49.824Z,-0.10
2019-01-03T03:05:50.167Z,-0.10
2019-01-03T03:08:42.231Z,-0.10
2019-01-03T03:11:44.788Z,-0.10
2019-01-03T03:14:44.253Z,-0.10
2019-01-03T03:17:41.244Z,-0.10
2019-01-03T03:20:41.415Z,0.00
2019-01-03T03:23:36.059Z,0.00
2019-01-03T03:26:25.532Z,0.00
2019-01-03T03:29:32.535Z,0.00
2019-01-03T03:32:33.321Z,0.00
2019-01-03T03:35:40.364Z,0.10
2019-01-03T03:38:47.383Z,0.10
2019-01-03T03:41:54.396Z,0.00
2019-01-03T03:45:01.646Z,0.10
2019-01-03T03:47:57.841Z,0.10
2019-01-03T03:50:57.647Z,0.10
2019-01-03T03:54:04.640Z,0.10
2019-01-03T03:57:11.650Z,0.10
2019-01-03T04:00:11.643Z,0.10
2019-01-03T04:03:18.630Z,0.10
2019-01-03T04:06:25.638Z,0.10
2019-01-03T04:09:32.651Z,0.20
2019-01-03T04:12:39.669Z,0.10
2019-01-03T04:15:46.671Z,0.10
2019-01-03T04:18:53.667Z,0.10
2019-01-03T04:22:00.702Z,0.10
2019-01-03T04:24:59.933Z,0.10
2019-01-03T04:28:07.131Z,0.10
2019-01-03T04:31:14.156Z,0.10
2019-01-03T04:37:25.003Z,0.10
2019-01-03T04:40:26.548Z,0.10
2019-01-03T04:43:33.553Z,0.00
2019-01-03T04:46:40.564Z,0.10
2019-01-03T04:49:47.573Z,0.10
2019-01-03T04:52:54.585Z,0.10
2019-01-03T04:56:02.070Z,0.10
2019-01-03T04:59:09.076Z,0.10
2019-01-03T05:02:16.081Z,0.10
2019-01-03T05:05:23.354Z,0.00
2019-01-03T05:08:30.344Z,0.10
2019-01-03T05:11:37.348Z,0.10
2019-01-03T05:14:44.358Z,0.10
2019-01-03T05:17:51.356Z,0.10
2019-01-03T05:20:58.696Z,0.10
2019-01-03T05:23:58.171Z,0.20
2019-01-03T05:27:02.384Z,0.20
2019-01-03T05:30:02.463Z,0.10
2019-01-03T05:33:02.057Z,0.20
2019-01-03T05:36:02.650Z,0.20
2019-01-03T05:39:02.479Z,0.20
2019-01-03T05:41:55.128Z,0.20
2019-01-03T05:44:52.268Z,0.20
2019-01-03T05:47:52.221Z,0.30
2019-01-03T05:50:51.750Z,0.30
2019-01-03T05:53:46.060Z,0.30
2019-01-03T05:56:45.976Z,0.30
2019-01-03T05:59:52.003Z,0.40
2019-01-03T06:02:51.831Z,0.40
2019-01-03T06:05:58.092Z,0.40
2019-01-03T06:08:52.711Z,0.50
2019-01-03T06:11:52.643Z,0.50
2019-01-03T06:14:52.895Z,0.50
2019-01-03T06:17:53.494Z,0.50
2019-01-03T06:20:53.436Z,0.50
2019-01-03T06:23:53.701Z,0.50
2019-01-03T06:26:57.241Z,0.50
2019-01-03T06:29:57.140Z,0.50
2019-01-03T06:32:57.020Z,0.50
2019-01-03T06:35:56.460Z,0.50
2019-01-03T06:38:56.745Z,0.50
2019-01-03T06:41:38.415Z,0.50
2019-01-03T06:44:38.716Z,0.60
2019-01-03T06:47:36.711Z,0.60
2019-01-03T06:50:35.989Z,0.60
2019-01-03T06:53:41.492Z,0.60
2019-01-03T06:56:41.775Z,0.70
2019-01-03T06:59:40.655Z,0.70
2019-01-03T07:02:40.108Z,0.70
2019-01-03T07:05:40.166Z,0.80
2019-01-03T07:08:45.738Z,0.80
2019-01-03T07:11:45.928Z,0.80
2019-01-03T07:14:48.546Z,0.90
2019-01-03T07:17:40.991Z,1.00
2019-01-03T07:20:40.860Z,1.00
2019-01-03T07:23:40.408Z,1.10
2019-01-03T07:26:39.785Z,1.10
2019-01-03T07:29:39.864Z,1.20
2019-01-03T07:32:40.214Z,1.20
2019-01-03T07:35:39.728Z,1.20
2019-01-03T07:38:39.129Z,1.20
2019-01-03T07:41:38.626Z,1.20
2019-01-03T07:44:38.945Z,1.20
2019-01-03T07:47:38.407Z,1.20
2019-01-03T07:50:38.026Z,1.20
2019-01-03T07:53:37.460Z,1.20
2019-01-03T07:56:38.971Z,1.20
2019-01-03T07:59:39.036Z,1.20
2019-01-03T08:02:38.433Z,1.10
2019-01-03T08:05:44.098Z,1.10
2019-01-03T08:08:43.932Z,1.10
2019-01-03T08:14:29.531Z,1.10
2019-01-03T08:17:29.771Z,1.10
2019-01-03T08:20:30.056Z,1.10
2019-01-03T08:23:35.547Z,1.10
2019-01-03T08:26:30.595Z,1.10
2019-01-03T08:29:30.022Z,1.10
2019-01-03T08:32:29.568Z,2.20
2019-01-03T08:35:29.342Z,1.70
2019-01-03T08:38:28.888Z,1.50
2019-01-03T08:41:28.219Z,1.40
2019-01-03T08:44:34.154Z,1.40
2019-01-03T08:47:33.619Z,1.30
2019-01-03T08:50:33.313Z,1.30
2019-01-03T08:53:32.865Z,1.30
2019-01-03T08:56:28.207Z,1.30
2019-01-03T08:59:18.513Z,1.40
2019-01-03T09:02:18.472Z,1.40
2019-01-03T09:05:17.871Z,1.40
2019-01-03T09:08:14.175Z,1.40
2019-01-03T09:11:14.155Z,1.40
2019-01-03T09:14:12.055Z,1.40
2019-01-03T09:17:11.408Z,1.50
2019-01-03T09:20:11.557Z,1.60
2019-01-03T09:23:10.862Z,1.60
2019-01-03T09:26:10.679Z,1.60
2019-01-03T09:29:05.218Z,1.60
2019-01-03T09:32:05.077Z,1.70
2019-01-03T09:35:04.675Z,1.80
2019-01-03T09:38:04.200Z,1.90
2019-01-03T09:41:04.383Z,1.90
2019-01-03T09:43:56.328Z,1.90
2019-01-03T09:49:20.683Z,2.00
2019-01-03T09:52:01.795Z,2.00
2019-01-03T09:54:42.492Z,2.10
2019-01-03T09:57:23.239Z,2.10
2019-01-03T10:00:03.947Z,2.10
2019-01-03T10:02:44.749Z,2.20
2019-01-03T10:05:25.577Z,2.30
2019-01-03T10:10:49.201Z,2.40
2019-01-03T10:13:29.674Z,2.60
2019-01-03T10:16:10.425Z,2.80
2019-01-03T10:18:51.097Z,2.90
2019-01-03T10:21:31.804Z,3.10
2019-01-03T10:24:12.430Z,3.20
2019-01-03T10:26:53.131Z,3.30
2019-01-03T10:29:33.864Z,3.40
2019-01-03T10:32:14.396Z,3.40
2019-01-03T10:34:55.228Z,3.60
2019-01-03T10:37:35.964Z,3.70
2019-01-03T10:40:16.752Z,3.70
2019-01-03T10:42:57.611Z,3.70
2019-01-03T10:45:38.462Z,3.60
2019-01-03T10:48:18.904Z,3.70
2019-01-03T10:53:42.356Z,3.50
2019-01-03T10:56:22.992Z,3.60
2019-01-03T10:59:03.617Z,3.40
2019-01-03T11:01:44.221Z,3.40
2019-01-03T11:04:25.065Z,3.50
2019-01-03T11:07:05.403Z,3.50
2019-01-03T11:09:46.189Z,3.60
2019-01-03T11:12:26.848Z,4.30
2019-01-03T11:15:07.764Z,5.30
2019-01-03T11:17:48.288Z,6.10
2019-01-03T11:20:29.239Z,7.50
2019-01-03T11:23:09.992Z,8.70
2019-01-03T11:25:50.419Z,9.60
2019-01-03T11:28:30.760Z,8.50
2019-01-03T11:31:11.196Z,6.80
2019-01-03T11:33:50.207Z,6.30
2019-01-03T11:36:38.097Z,5.80
2019-01-03T11:42:13.960Z,5.70
2019-01-03T11:44:54.224Z,5.80
2019-01-03T11:47:34.920Z,5.70
2019-01-03T11:50:18.329Z,5.50
2019-01-03T11:52:59.018Z,5.30
2019-01-03T11:55:39.915Z,5.30
2019-01-03T11:58:20.459Z,5.10
2019-01-03T12:01:00.908Z,5.70
2019-01-03T12:03:41.947Z,6.00
2019-01-03T12:06:22.504Z,6.40
2019-01-03T12:09:03.173Z,6.70
2019-01-03T12:11:44.022Z,8.00
2019-01-03T12:14:24.535Z,9.30
2019-01-03T12:17:05.127Z,10.00
2019-01-03T12:19:45.984Z,10.40
2019-01-03T12:22:26.476Z,9.90
2019-01-03T12:25:07.172Z,9.10
2019-01-03T12:27:47.777Z,7.80
2019-01-03T12:30:28.612Z,7.10
2019-01-03T12:33:08.894Z,6.50
2019-01-03T12:35:49.403Z,6.30
2019-01-03T12:38:30.175Z,6.40
2019-01-03T12:41:10.625Z,7.20
2019-01-03T12:43:50.974Z,7.30
2019-01-03T12:46:31.531Z,7.10
2019-01-03T12:49:11.937Z,7.60
2019-01-03T12:51:52.268Z,7.90
2019-01-03T12:54:32.748Z,7.40
2019-01-03T12:57:13.301Z,7.00
2019-01-03T12:59:53.670Z,6.90
2019-01-03T13:02:34.264Z,6.40
2019-01-03T13:05:14.969Z,6.50
2019-01-03T13:07:55.576Z,6.50
2019-01-03T13:10:36.328Z,6.20
2019-01-03T13:13:17.175Z,6.10
2019-01-03T13:15:57.681Z,5.80
2019-01-03T13:18:38.426Z,5.70
2019-01-03T13:21:19.007Z,5.70
2019-01-03T13:23:59.545Z,5.50
2019-01-03T13:26:40.215Z,5.30
2019-01-03T13:29:20.923Z,5.10
2019-01-03T13:32:01.382Z,5.00
2019-01-03T13:34:41.949Z,5.20
2019-01-03T13:37:22.491Z,5.20
2019-01-03T13:40:02.849Z,5.10
2019-01-03T13:42:43.404Z,5.10
2019-01-03T13:45:24.024Z,5.10
2019-01-03T13:48:04.223Z,5.00
2019-01-03T13:50:44.823Z,5.10
2019-01-03T13:53:25.361Z,5.00
2019-01-03T13:56:06.125Z,4.90
2019-01-03T13:58:47.186Z,4.90
2019-01-03T14:01:27.599Z,4.80
2019-01-03T14:04:08.251Z,4.90
2019-01-03T14:06:48.996Z,5.00
2019-01-03T14:09:29.363Z,5.10
2019-01-03T14:12:09.715Z,5.20
2019-01-03T14:14:50.304Z,5.10
2019-01-03T14:17:30.696Z,5.00
2019-01-03T14:20:11.244Z,4.90
2019-01-03T14:22:51.737Z,4.80
2019-01-03T14:25:32.475Z,4.90
2019-01-03T14:28:13.614Z,4.80
2019-01-03T14:30:54.270Z,4.80
2019-01-03T14:33:34.897Z,4.70
2019-01-03T14:36:15.416Z,4.70
2019-01-03T14:38:56.051Z,4.60
2019-01-03T14:41:36.891Z,4.50
2019-01-03T14:44:17.384Z,4.40
2019-01-03T14:46:57.923Z,4.40
2019-01-03T14:49:38.222Z,4.40
2019-01-03T14:52:18.759Z,4.30
2019-01-03T14:54:59.299Z,4.30
2019-01-03T14:57:40.163Z,4.20
2019-01-03T15:00:20.471Z,4.20
2019-01-03T15:03:01.192Z,4.10
2019-01-03T15:05:41.818Z,4.10
2019-01-03T15:08:22.730Z,4.00
2019-01-03T15:11:03.686Z,4.00
2019-01-03T15:13:44.299Z,3.90
2019-01-03T15:16:25.096Z,3.90
2019-01-03T15:19:05.888Z,3.90
2019-01-03T15:21:46.577Z,3.80
2019-01-03T15:27:10.492Z,3.80
2019-01-03T15:29:51.009Z,3.80
2019-01-03T15:32:31.901Z,3.70
2019-01-03T15:35:12.587Z,3.70
2019-01-03T15:37:53.303Z,3.60
2019-01-03T15:40:33.799Z,3.60
2019-01-03T15:43:14.647Z,3.60
2019-01-03T15:45:55.070Z,3.50
2019-01-03T15:51:18.825Z,3.50
2019-01-03T15:53:59.159Z,3.40
2019-01-03T15:56:40.513Z,3.40
2019-01-03T16:02:03.732Z,3.40
2019-01-03T16:04:45.002Z,3.40
2019-01-03T16:07:25.689Z,3.40
2019-01-03T16:10:06.057Z,3.30
2019-01-03T16:12:46.856Z,3.30
2019-01-03T16:15:27.683Z,3.30
2019-01-03T16:18:08.208Z,3.30
2019-01-03T16:20:48.652Z,3.30
2019-01-03T16:23:29.292Z,3.20
2019-01-03T16:26:09.664Z,3.30
2019-01-03T16:28:50.189Z,3.30
2019-01-03T16:31:30.894Z,3.20
2019-01-03T16:34:11.721Z,3.30
2019-01-03T16:36:52.345Z,3.30
2019-01-03T16:39:32.857Z,3.20
2019-01-03T16:42:13.698Z,3.20
2019-01-03T16:44:54.338Z,3.20
2019-01-03T16:47:34.890Z,3.20
2019-01-03T16:50:15.611Z,3.20
2019-01-03T16:52:56.252Z,3.20
2019-01-03T16:55:36.811Z,3.10
2019-01-03T16:58:17.591Z,3.10
2019-01-03T17:00:58.808Z,3.10
2019-01-03T17:03:39.704Z,3.10
2019-01-03T17:06:20.308Z,3.10
2019-01-03T17:09:00.856Z,3.10
2019-01-03T17:11:41.476Z,3.00
2019-01-03T17:14:21.799Z,3.00
2019-01-03T17:17:02.404Z,3.10
2019-01-03T17:19:43.171Z,3.00
2019-01-03T17:22:23.756Z,3.00
2019-01-03T17:25:04.214Z,3.00
2019-01-03T17:27:45.000Z,3.00
2019-01-03T17:30:25.380Z,3.00
2019-01-03T17:33:06.161Z,3.00
2019-01-03T17:35:46.912Z,2.90
2019-01-03T17:38:27.720Z,2.90
2019-01-03T17:41:08.533Z,2.80
2019-01-03T17:43:49.469Z,2.80
2019-01-03T17:49:12.312Z,2.70
2019-01-03T17:51:53.216Z,2.70
2019-01-03T17:54:33.781Z,2.60
2019-01-03T17:57:14.351Z,2.60
2019-01-03T17:59:54.926Z,2.50
2019-01-03T18:02:35.656Z,2.50
2019-01-03T18:05:16.288Z,2.50
2019-01-03T18:07:56.837Z,2.40
2019-01-03T18:10:37.365Z,2.40
2019-01-03T18:13:17.938Z,2.30
2019-01-03T18:15:58.701Z,2.30
2019-01-03T18:18:39.490Z,2.30
2019-01-03T18:21:19.964Z,2.30
2019-01-03T18:24:00.591Z,2.30
2019-01-03T18:26:41.320Z,2.20
2019-01-03T18:29:21.944Z,2.20
2019-01-03T18:32:02.589Z,2.20
2019-01-03T18:34:43.279Z,2.10
2019-01-03T18:37:23.801Z,2.10
2019-01-03T18:40:04.679Z,2.10
2019-01-03T18:42:45.078Z,2.10
2019-01-03T18:45:25.624Z,2.10
2019-01-03T18:48:05.982Z,2.00
2019-01-03T18:50:46.439Z,2.00
2019-01-03T18:53:26.915Z,2.00
2019-01-03T18:56:07.557Z,1.90
2019-01-03T18:58:48.171Z,1.90
2019-01-03T19:01:28.867Z,1.90
2019-01-03T19:04:09.645Z,1.90
2019-01-03T19:06:50.144Z,1.90
2019-01-03T19:09:30.538Z,1.90
2019-01-03T19:12:11.228Z,1.80
2019-01-03T19:14:50.271Z,1.80
2019-01-03T19:17:38.206Z,1.80
2019-01-03T19:20:26.073Z,1.80
2019-01-03T19:23:14.000Z,1.80
2019-01-03T19:26:01.971Z,1.80
2019-01-03T19:28:43.045Z,1.80
2019-01-03T19:31:23.764Z,1.70
2019-01-03T19:34:04.391Z,1.70
2019-01-03T19:36:45.007Z,1.70
2019-01-03T19:42:08.593Z,1.60
2019-01-03T19:44:49.272Z,1.60
2019-01-03T19:47:29.843Z,1.60
2019-01-03T19:50:10.704Z,1.60
2019-01-03T19:52:51.360Z,1.50
2019-01-03T19:55:32.111Z,1.50
2019-01-03T19:58:12.832Z,1.50
2019-01-03T20:00:53.571Z,1.50
2019-01-03T20:03:34.288Z,1.50
2019-01-03T20:06:15.237Z,1.50
2019-01-03T20:08:55.824Z,1.50
2019-01-03T20:11:36.746Z,1.50
2019-01-03T20:14:17.534Z,1.50
2019-01-03T20:16:57.987Z,1.50
2019-01-03T20:19:38.748Z,1.50
2019-01-03T20:22:19.879Z,1.50
2019-01-03T20:25:00.869Z,1.50
2019-01-03T20:27:41.355Z,1.50
2019-01-03T20:30:22.113Z,1.50
2019-01-03T20:33:03.076Z,1.60
2019-01-03T20:38:26.878Z,1.50
2019-01-03T20:41:07.676Z,1.50
2019-01-03T20:43:48.619Z,1.50
2019-01-03T20:46:29.438Z,1.40
2019-01-03T20:49:10.066Z,1.40
2019-01-03T20:51:50.735Z,1.40
2019-01-03T20:54:31.716Z,1.40
2019-01-03T20:57:12.380Z,1.40
2019-01-03T20:59:53.140Z,1.40
2019-01-03T21:02:33.799Z,1.40
2019-01-03T21:05:14.671Z,1.40
2019-01-03T21:07:55.165Z,1.30
2019-01-03T21:10:35.923Z,1.30
2019-01-03T21:13:17.337Z,1.30
2019-01-03T21:15:57.612Z,1.30
2019-01-03T21:18:38.119Z,1.30
2019-01-03T21:24:01.739Z,1.40
2019-01-03T21:26:42.759Z,1.40
2019-01-03T21:29:23.356Z,1.40
2019-01-03T21:32:03.884Z,1.40
2019-01-03T21:34:44.288Z,1.40
2019-01-03T21:37:24.884Z,1.50
2019-01-03T21:40:05.469Z,1.50
2019-01-03T21:42:46.567Z,1.40
2019-01-03T21:45:26.964Z,1.40
2019-01-03T21:48:07.704Z,1.40
2019-01-03T21:50:48.174Z,1.40
2019-01-03T21:53:28.791Z,1.40
2019-01-03T21:56:09.491Z,1.40
2019-01-03T21:58:49.995Z,1.40
2019-01-03T22:01:30.404Z,1.40
2019-01-03T22:04:10.753Z,1.40
2019-01-03T22:06:51.315Z,1.30
2019-01-03T22:09:32.068Z,1.30
2019-01-03T22:12:13.045Z,1.30
2019-01-03T22:14:53.544Z,1.30
2019-01-03T22:17:34.256Z,1.30
2019-01-03T22:20:14.837Z,1.20
2019-01-03T22:22:55.863Z,1.20
2019-01-03T22:25:36.525Z,1.20
2019-01-03T22:28:17.089Z,1.20
2019-01-03T22:30:58.296Z,1.20
2019-01-03T22:33:38.743Z,1.20
2019-01-03T22:36:19.391Z,1.20
2019-01-03T22:39:00.220Z,1.20
2019-01-03T22:41:40.661Z,1.20
2019-01-03T22:44:21.243Z,1.20
2019-01-03T22:47:01.812Z,1.20
2019-01-03T22:49:42.368Z,1.20
2019-01-03T22:55:04.227Z,1.10
2019-01-03T22:57:52.110Z,1.10
2019-01-03T23:03:55.933Z,1.10
2019-01-03T23:06:43.816Z,1.10
2019-01-03T23:09:24.482Z,1.10
2019-01-03T23:12:05.017Z,1.10
2019-01-03T23:14:45.609Z,1.10
2019-01-03T23:20:09.418Z,1.10
2019-01-03T23:22:50.076Z,1.10
2019-01-03T23:25:31.045Z,1.10
2019-01-03T23:28:11.668Z,1.10
2019-01-03T23:30:52.349Z,1.10
2019-01-03T23:33:33.119Z,1.10
2019-01-03T23:36:13.871Z,1.10
2019-01-03T23:38:54.248Z,1.10
2019-01-03T23:41:34.709Z,1.10
2019-01-03T23:44:15.504Z,1.10
2019-01-03T23:46:56.319Z,1.20
2019-01-03T23:49:37.227Z,1.20
2019-01-03T23:52:17.883Z,1.20
2019-01-03T23:54:58.760Z,1.20
2019-01-03T23:57:39.675Z,1.20
